sensor_id;sensor_type;location;lat;lon;timestamp;P1;durP1;ratioP1;P2;durP2;ratioP2
19030;SDS011;9648;51.130;13.978;2023-08-07T00:00:46;4.78;;;4.20;;
19030;SDS011;9648;51.130;13.978;2023-08-07T00:03:13;4.67;;;4.23;;
19030;SDS011;9648;51.130;13.978;2023-08-07T00:05:44;5.45;;;4.40;;
19030;SDS011;9648;51.130;13.978;2023-08-07T00:08:12;6.30;;;5.03;;
19030;SDS011;9648;51.130;13.978;2023-08-07T00:10:39;6.28;;;4.82;;
19030;SDS011;9648;51.130;13.978;2023-08-07T00:13:06;7.07;;;5.35;;
19030;SDS011;9648;51.130;13.978;2023-08-07T00:15:33;6.78;;;5.15;;
19030;SDS011;9648;51.130;13.978;2023-08-07T00:18:00;5.50;;;4.90;;
19030;SDS011;9648;51.130;13.978;2023-08-07T00:20:27;6.33;;;4.67;;
19030;SDS011;9648;51.130;13.978;2023-08-07T00:22:53;6.10;;;4.75;;
19030;SDS011;9648;51.130;13.978;2023-08-07T00:25:22;5.82;;;4.30;;
19030;SDS011;9648;51.130;13.978;2023-08-07T00:27:49;5.53;;;4.28;;
19030;SDS011;9648;51.130;13.978;2023-08-07T00:30:16;5.63;;;4.15;;
19030;SDS011;9648;51.130;13.978;2023-08-07T00:32:43;4.90;;;4.40;;
19030;SDS011;9648;51.130;13.978;2023-08-07T00:35:09;6.32;;;4.10;;
19030;SDS011;9648;51.130;13.978;2023-08-07T00:37:36;9.17;;;4.43;;
19030;SDS011;9648;51.130;13.978;2023-08-07T00:40:03;4.90;;;4.30;;
19030;SDS011;9648;51.130;13.978;2023-08-07T00:42:33;5.65;;;4.30;;
19030;SDS011;9648;51.130;13.978;2023-08-07T00:44:59;6.07;;;4.20;;
19030;SDS011;9648;51.130;13.978;2023-08-07T00:47:28;5.22;;;3.97;;
19030;SDS011;9648;51.130;13.978;2023-08-07T00:49:55;4.88;;;4.38;;
19030;SDS011;9648;51.130;13.978;2023-08-07T00:52:23;5.43;;;4.47;;
19030;SDS011;9648;51.130;13.978;2023-08-07T00:54:50;6.22;;;4.45;;
19030;SDS011;9648;51.130;13.978;2023-08-07T00:57:17;5.47;;;4.50;;
19030;SDS011;9648;51.130;13.978;2023-08-07T00:59:49;6.97;;;4.90;;
19030;SDS011;9648;51.130;13.978;2023-08-07T01:02:16;5.30;;;4.80;;
19030;SDS011;9648;51.130;13.978;2023-08-07T01:04:43;10.07;;;5.40;;
19030;SDS011;9648;51.130;13.978;2023-08-07T01:07:10;8.07;;;5.83;;
19030;SDS011;9648;51.130;13.978;2023-08-07T01:09:37;6.35;;;5.53;;
19030;SDS011;9648;51.130;13.978;2023-08-07T01:12:07;5.47;;;4.70;;
19030;SDS011;9648;51.130;13.978;2023-08-07T01:14:40;5.43;;;4.88;;
19030;SDS011;9648;51.130;13.978;2023-08-07T01:17:16;4.93;;;4.50;;
19030;SDS011;9648;51.130;13.978;2023-08-07T01:19:45;5.37;;;4.87;;
19030;SDS011;9648;51.130;13.978;2023-08-07T01:22:16;6.05;;;4.47;;
19030;SDS011;9648;51.130;13.978;2023-08-07T01:24:44;5.85;;;4.88;;
19030;SDS011;9648;51.130;13.978;2023-08-07T01:27:15;6.65;;;4.78;;
19030;SDS011;9648;51.130;13.978;2023-08-07T01:29:57;6.85;;;4.78;;
19030;SDS011;9648;51.130;13.978;2023-08-07T01:32:29;6.32;;;3.90;;
19030;SDS011;9648;51.130;13.978;2023-08-07T01:35:04;4.90;;;3.83;;
19030;SDS011;9648;51.130;13.978;2023-08-07T01:37:35;6.27;;;3.47;;
19030;SDS011;9648;51.130;13.978;2023-08-07T01:40:06;4.28;;;3.33;;
19030;SDS011;9648;51.130;13.978;2023-08-07T01:42:35;4.93;;;3.50;;
19030;SDS011;9648;51.130;13.978;2023-08-07T01:45:02;4.65;;;3.53;;
19030;SDS011;9648;51.130;13.978;2023-08-07T01:47:30;5.30;;;3.58;;
19030;SDS011;9648;51.130;13.978;2023-08-07T01:49:56;4.32;;;3.30;;
19030;SDS011;9648;51.130;13.978;2023-08-07T01:52:23;4.75;;;3.60;;
19030;SDS011;9648;51.130;13.978;2023-08-07T01:54:51;3.93;;;3.10;;
19030;SDS011;9648;51.130;13.978;2023-08-07T01:57:18;3.47;;;3.17;;
19030;SDS011;9648;51.130;13.978;2023-08-07T01:59:45;3.67;;;3.08;;
19030;SDS011;9648;51.130;13.978;2023-08-07T02:02:12;3.85;;;2.88;;
19030;SDS011;9648;51.130;13.978;2023-08-07T02:04:38;3.78;;;2.78;;
19030;SDS011;9648;51.130;13.978;2023-08-07T02:07:05;4.22;;;3.10;;
19030;SDS011;9648;51.130;13.978;2023-08-07T02:09:32;4.00;;;2.80;;
19030;SDS011;9648;51.130;13.978;2023-08-07T02:12:00;3.97;;;2.50;;
19030;SDS011;9648;51.130;13.978;2023-08-07T02:14:28;3.88;;;2.90;;
19030;SDS011;9648;51.130;13.978;2023-08-07T02:16:55;3.15;;;2.67;;
19030;SDS011;9648;51.130;13.978;2023-08-07T02:19:21;4.53;;;2.83;;
19030;SDS011;9648;51.130;13.978;2023-08-07T02:21:48;3.40;;;2.60;;
19030;SDS011;9648;51.130;13.978;2023-08-07T02:24:15;5.32;;;2.75;;
19030;SDS011;9648;51.130;13.978;2023-08-07T02:26:43;4.30;;;2.50;;
19030;SDS011;9648;51.130;13.978;2023-08-07T02:29:11;3.40;;;2.60;;
19030;SDS011;9648;51.130;13.978;2023-08-07T02:31:38;3.75;;;2.70;;
19030;SDS011;9648;51.130;13.978;2023-08-07T02:34:04;4.00;;;3.10;;
19030;SDS011;9648;51.130;13.978;2023-08-07T02:36:31;4.63;;;2.93;;
19030;SDS011;9648;51.130;13.978;2023-08-07T02:38:58;4.45;;;2.88;;
19030;SDS011;9648;51.130;13.978;2023-08-07T02:41:25;4.25;;;2.90;;
19030;SDS011;9648;51.130;13.978;2023-08-07T02:43:51;3.15;;;2.80;;
19030;SDS011;9648;51.130;13.978;2023-08-07T02:46:19;5.43;;;3.50;;
19030;SDS011;9648;51.130;13.978;2023-08-07T02:48:46;5.50;;;3.80;;
19030;SDS011;9648;51.130;13.978;2023-08-07T02:51:13;8.73;;;5.35;;
19030;SDS011;9648;51.130;13.978;2023-08-07T02:53:40;7.45;;;5.68;;
19030;SDS011;9648;51.130;13.978;2023-08-07T02:56:06;9.10;;;6.38;;
19030;SDS011;9648;51.130;13.978;2023-08-07T02:58:34;7.90;;;6.55;;
19030;SDS011;9648;51.130;13.978;2023-08-07T03:01:02;7.22;;;5.68;;
19030;SDS011;9648;51.130;13.978;2023-08-07T03:03:31;7.05;;;5.82;;
19030;SDS011;9648;51.130;13.978;2023-08-07T03:05:58;6.50;;;4.80;;
19030;SDS011;9648;51.130;13.978;2023-08-07T03:08:25;5.00;;;4.00;;
19030;SDS011;9648;51.130;13.978;2023-08-07T03:10:52;4.63;;;3.63;;
19030;SDS011;9648;51.130;13.978;2023-08-07T03:13:21;5.57;;;3.67;;
19030;SDS011;9648;51.130;13.978;2023-08-07T03:15:48;4.10;;;3.40;;
19030;SDS011;9648;51.130;13.978;2023-08-07T03:18:15;3.28;;;2.40;;
19030;SDS011;9648;51.130;13.978;2023-08-07T03:20:43;3.63;;;2.10;;
19030;SDS011;9648;51.130;13.978;2023-08-07T03:23:10;2.90;;;2.15;;
19030;SDS011;9648;51.130;13.978;2023-08-07T03:25:37;2.85;;;2.30;;
19030;SDS011;9648;51.130;13.978;2023-08-07T03:28:04;4.72;;;2.40;;
19030;SDS011;9648;51.130;13.978;2023-08-07T03:30:31;3.90;;;2.65;;
19030;SDS011;9648;51.130;13.978;2023-08-07T03:32:57;3.80;;;2.90;;
19030;SDS011;9648;51.130;13.978;2023-08-07T03:35:24;4.15;;;2.65;;
19030;SDS011;9648;51.130;13.978;2023-08-07T03:37:53;4.63;;;2.63;;
19030;SDS011;9648;51.130;13.978;2023-08-07T03:40:19;3.92;;;2.95;;
19030;SDS011;9648;51.130;13.978;2023-08-07T03:42:46;3.42;;;2.78;;
19030;SDS011;9648;51.130;13.978;2023-08-07T03:45:13;4.93;;;2.75;;
19030;SDS011;9648;51.130;13.978;2023-08-07T03:47:40;4.07;;;2.80;;
19030;SDS011;9648;51.130;13.978;2023-08-07T03:50:07;3.80;;;2.67;;
19030;SDS011;9648;51.130;13.978;2023-08-07T03:52:34;4.70;;;3.03;;
19030;SDS011;9648;51.130;13.978;2023-08-07T03:55:02;4.60;;;2.90;;
19030;SDS011;9648;51.130;13.978;2023-08-07T03:57:29;6.88;;;3.10;;
19030;SDS011;9648;51.130;13.978;2023-08-07T03:59:56;8.05;;;2.92;;
19030;SDS011;9648;51.130;13.978;2023-08-07T04:02:23;5.28;;;2.90;;
19030;SDS011;9648;51.130;13.978;2023-08-07T04:04:50;6.45;;;3.10;;
19030;SDS011;9648;51.130;13.978;2023-08-07T04:07:17;4.07;;;2.95;;
19030;SDS011;9648;51.130;13.978;2023-08-07T04:09:44;5.35;;;3.50;;
19030;SDS011;9648;51.130;13.978;2023-08-07T04:12:12;5.00;;;3.30;;
19030;SDS011;9648;51.130;13.978;2023-08-07T04:14:38;4.60;;;3.10;;
19030;SDS011;9648;51.130;13.978;2023-08-07T04:17:05;4.28;;;2.90;;
19030;SDS011;9648;51.130;13.978;2023-08-07T04:19:32;5.65;;;3.13;;
19030;SDS011;9648;51.130;13.978;2023-08-07T04:21:59;4.70;;;2.92;;
19030;SDS011;9648;51.130;13.978;2023-08-07T04:24:25;4.75;;;3.30;;
19030;SDS011;9648;51.130;13.978;2023-08-07T04:26:52;5.32;;;3.40;;
19030;SDS011;9648;51.130;13.978;2023-08-07T04:29:21;5.00;;;3.47;;
19030;SDS011;9648;51.130;13.978;2023-08-07T04:31:47;4.97;;;3.40;;
19030;SDS011;9648;51.130;13.978;2023-08-07T04:34:14;5.82;;;3.83;;
19030;SDS011;9648;51.130;13.978;2023-08-07T04:36:41;7.10;;;4.10;;
19030;SDS011;9648;51.130;13.978;2023-08-07T04:39:08;6.37;;;4.00;;
19030;SDS011;9648;51.130;13.978;2023-08-07T04:41:35;8.30;;;4.85;;
19030;SDS011;9648;51.130;13.978;2023-08-07T04:44:01;7.85;;;5.00;;
19030;SDS011;9648;51.130;13.978;2023-08-07T04:46:30;8.32;;;5.68;;
19030;SDS011;9648;51.130;13.978;2023-08-07T04:48:58;8.52;;;6.25;;
19030;SDS011;9648;51.130;13.978;2023-08-07T04:51:26;11.27;;;6.35;;
19030;SDS011;9648;51.130;13.978;2023-08-07T04:53:53;11.20;;;7.28;;
19030;SDS011;9648;51.130;13.978;2023-08-07T04:56:21;10.93;;;6.80;;
19030;SDS011;9648;51.130;13.978;2023-08-07T04:58:48;9.50;;;6.97;;
19030;SDS011;9648;51.130;13.978;2023-08-07T05:01:15;11.02;;;7.60;;
19030;SDS011;9648;51.130;13.978;2023-08-07T05:03:43;13.63;;;8.57;;
19030;SDS011;9648;51.130;13.978;2023-08-07T05:06:10;10.77;;;7.57;;
19030;SDS011;9648;51.130;13.978;2023-08-07T05:08:36;12.05;;;8.80;;
19030;SDS011;9648;51.130;13.978;2023-08-07T05:11:03;11.57;;;8.57;;
19030;SDS011;9648;51.130;13.978;2023-08-07T05:13:30;12.90;;;9.10;;
19030;SDS011;9648;51.130;13.978;2023-08-07T05:15:57;10.93;;;8.55;;
19030;SDS011;9648;51.130;13.978;2023-08-07T05:18:24;12.45;;;8.55;;
19030;SDS011;9648;51.130;13.978;2023-08-07T05:20:52;14.55;;;8.82;;
19030;SDS011;9648;51.130;13.978;2023-08-07T05:23:19;11.27;;;8.23;;
19030;SDS011;9648;51.130;13.978;2023-08-07T05:25:46;13.90;;;9.18;;
19030;SDS011;9648;51.130;13.978;2023-08-07T05:28:13;14.65;;;9.40;;
19030;SDS011;9648;51.130;13.978;2023-08-07T05:30:40;12.60;;;9.45;;
19030;SDS011;9648;51.130;13.978;2023-08-07T05:33:07;13.20;;;8.80;;
19030;SDS011;9648;51.130;13.978;2023-08-07T05:35:34;11.82;;;9.02;;
19030;SDS011;9648;51.130;13.978;2023-08-07T05:38:02;12.32;;;9.10;;
19030;SDS011;9648;51.130;13.978;2023-08-07T05:40:28;12.68;;;9.00;;
19030;SDS011;9648;51.130;13.978;2023-08-07T05:42:55;11.52;;;7.88;;
19030;SDS011;9648;51.130;13.978;2023-08-07T05:45:22;12.65;;;8.85;;
19030;SDS011;9648;51.130;13.978;2023-08-07T05:47:49;11.40;;;8.27;;
19030;SDS011;9648;51.130;13.978;2023-08-07T05:50:16;10.82;;;8.02;;
19030;SDS011;9648;51.130;13.978;2023-08-07T05:52:43;11.30;;;8.20;;
19030;SDS011;9648;51.130;13.978;2023-08-07T05:55:11;12.32;;;8.05;;
19030;SDS011;9648;51.130;13.978;2023-08-07T05:57:38;10.98;;;7.60;;
19030;SDS011;9648;51.130;13.978;2023-08-07T06:00:05;11.02;;;7.57;;
19030;SDS011;9648;51.130;13.978;2023-08-07T06:02:39;11.98;;;7.53;;
19030;SDS011;9648;51.130;13.978;2023-08-07T06:05:06;8.98;;;6.53;;
19030;SDS011;9648;51.130;13.978;2023-08-07T06:07:34;10.27;;;7.07;;
19030;SDS011;9648;51.130;13.978;2023-08-07T06:10:01;9.55;;;6.40;;
19030;SDS011;9648;51.130;13.978;2023-08-07T06:12:29;9.70;;;6.20;;
19030;SDS011;9648;51.130;13.978;2023-08-07T06:14:56;11.02;;;6.35;;
19030;SDS011;9648;51.130;13.978;2023-08-07T06:17:23;8.45;;;5.50;;
19030;SDS011;9648;51.130;13.978;2023-08-07T06:19:50;9.23;;;5.85;;
19030;SDS011;9648;51.130;13.978;2023-08-07T06:22:18;12.05;;;7.63;;
19030;SDS011;9648;51.130;13.978;2023-08-07T06:24:44;7.97;;;5.85;;
19030;SDS011;9648;51.130;13.978;2023-08-07T06:27:11;8.33;;;6.27;;
19030;SDS011;9648;51.130;13.978;2023-08-07T06:29:39;10.80;;;5.53;;
19030;SDS011;9648;51.130;13.978;2023-08-07T06:32:06;6.70;;;5.15;;
19030;SDS011;9648;51.130;13.978;2023-08-07T06:34:35;6.13;;;4.90;;
19030;SDS011;9648;51.130;13.978;2023-08-07T06:37:03;7.20;;;5.03;;
19030;SDS011;9648;51.130;13.978;2023-08-07T06:39:31;6.38;;;4.72;;
19030;SDS011;9648;51.130;13.978;2023-08-07T06:41:57;6.57;;;5.18;;
19030;SDS011;9648;51.130;13.978;2023-08-07T06:44:25;7.50;;;5.07;;
19030;SDS011;9648;51.130;13.978;2023-08-07T06:46:54;5.97;;;4.93;;
19030;SDS011;9648;51.130;13.978;2023-08-07T06:49:20;6.72;;;4.72;;
19030;SDS011;9648;51.130;13.978;2023-08-07T06:51:48;8.77;;;4.63;;
19030;SDS011;9648;51.130;13.978;2023-08-07T06:54:15;8.98;;;4.57;;
19030;SDS011;9648;51.130;13.978;2023-08-07T06:56:42;5.78;;;4.07;;
19030;SDS011;9648;51.130;13.978;2023-08-07T06:59:09;5.78;;;3.88;;
19030;SDS011;9648;51.130;13.978;2023-08-07T07:01:36;7.10;;;4.45;;
19030;SDS011;9648;51.130;13.978;2023-08-07T07:04:04;7.07;;;3.70;;
19030;SDS011;9648;51.130;13.978;2023-08-07T07:06:31;3.63;;;3.20;;
19030;SDS011;9648;51.130;13.978;2023-08-07T07:08:59;4.68;;;3.60;;
19030;SDS011;9648;51.130;13.978;2023-08-07T07:11:25;4.55;;;3.55;;
19030;SDS011;9648;51.130;13.978;2023-08-07T07:13:52;5.60;;;3.78;;
19030;SDS011;9648;51.130;13.978;2023-08-07T07:16:19;5.10;;;3.45;;
19030;SDS011;9648;51.130;13.978;2023-08-07T07:18:47;5.65;;;3.40;;
19030;SDS011;9648;51.130;13.978;2023-08-07T07:21:15;5.07;;;3.72;;
19030;SDS011;9648;51.130;13.978;2023-08-07T07:23:42;5.47;;;3.50;;
19030;SDS011;9648;51.130;13.978;2023-08-07T07:26:08;4.18;;;3.30;;
19030;SDS011;9648;51.130;13.978;2023-08-07T07:28:35;3.97;;;3.55;;
19030;SDS011;9648;51.130;13.978;2023-08-07T07:31:02;5.30;;;3.53;;
19030;SDS011;9648;51.130;13.978;2023-08-07T07:33:30;5.57;;;2.92;;
19030;SDS011;9648;51.130;13.978;2023-08-07T07:35:57;4.03;;;2.92;;
19030;SDS011;9648;51.130;13.978;2023-08-07T07:38:25;4.30;;;3.30;;
19030;SDS011;9648;51.130;13.978;2023-08-07T07:40:52;3.33;;;2.88;;
19030;SDS011;9648;51.130;13.978;2023-08-07T07:43:21;5.20;;;3.30;;
19030;SDS011;9648;51.130;13.978;2023-08-07T07:45:48;5.28;;;2.67;;
19030;SDS011;9648;51.130;13.978;2023-08-07T07:48:15;5.73;;;3.03;;
19030;SDS011;9648;51.130;13.978;2023-08-07T07:50:42;4.43;;;3.00;;
19030;SDS011;9648;51.130;13.978;2023-08-07T07:53:08;5.77;;;2.90;;
19030;SDS011;9648;51.130;13.978;2023-08-07T07:55:37;4.05;;;2.72;;
19030;SDS011;9648;51.130;13.978;2023-08-07T07:58:04;4.72;;;2.65;;
19030;SDS011;9648;51.130;13.978;2023-08-07T08:00:31;3.95;;;2.70;;
19030;SDS011;9648;51.130;13.978;2023-08-07T08:02:58;3.78;;;3.00;;
19030;SDS011;9648;51.130;13.978;2023-08-07T08:05:25;4.82;;;2.72;;
19030;SDS011;9648;51.130;13.978;2023-08-07T08:07:52;2.95;;;2.33;;
19030;SDS011;9648;51.130;13.978;2023-08-07T08:10:19;3.25;;;2.40;;
19030;SDS011;9648;51.130;13.978;2023-08-07T08:12:47;4.32;;;2.25;;
19030;SDS011;9648;51.130;13.978;2023-08-07T08:15:14;3.83;;;2.20;;
19030;SDS011;9648;51.130;13.978;2023-08-07T08:17:41;3.90;;;2.05;;
19030;SDS011;9648;51.130;13.978;2023-08-07T08:20:08;2.65;;;2.20;;
19030;SDS011;9648;51.130;13.978;2023-08-07T08:22:35;2.10;;;1.80;;
19030;SDS011;9648;51.130;13.978;2023-08-07T08:25:02;3.30;;;1.70;;
19030;SDS011;9648;51.130;13.978;2023-08-07T08:27:32;2.33;;;1.67;;
19030;SDS011;9648;51.130;13.978;2023-08-07T08:30:00;2.20;;;1.52;;
19030;SDS011;9648;51.130;13.978;2023-08-07T08:32:29;2.38;;;1.70;;
19030;SDS011;9648;51.130;13.978;2023-08-07T08:34:56;3.58;;;1.85;;
19030;SDS011;9648;51.130;13.978;2023-08-07T08:37:22;2.92;;;1.70;;
19030;SDS011;9648;51.130;13.978;2023-08-07T08:39:49;3.17;;;1.50;;
19030;SDS011;9648;51.130;13.978;2023-08-07T08:42:16;3.40;;;1.73;;
19030;SDS011;9648;51.130;13.978;2023-08-07T08:44:44;3.63;;;1.60;;
19030;SDS011;9648;51.130;13.978;2023-08-07T08:47:18;5.15;;;1.60;;
19030;SDS011;9648;51.130;13.978;2023-08-07T08:49:50;2.92;;;1.50;;
19030;SDS011;9648;51.130;13.978;2023-08-07T08:52:20;3.28;;;1.50;;
19030;SDS011;9648;51.130;13.978;2023-08-07T08:54:47;2.55;;;1.60;;
19030;SDS011;9648;51.130;13.978;2023-08-07T08:57:15;2.10;;;1.60;;
19030;SDS011;9648;51.130;13.978;2023-08-07T08:59:42;2.50;;;1.40;;
19030;SDS011;9648;51.130;13.978;2023-08-07T09:02:10;3.50;;;1.75;;
19030;SDS011;9648;51.130;13.978;2023-08-07T09:04:38;2.25;;;1.40;;
19030;SDS011;9648;51.130;13.978;2023-08-07T09:07:07;3.27;;;1.97;;
19030;SDS011;9648;51.130;13.978;2023-08-07T09:09:35;4.72;;;1.80;;
19030;SDS011;9648;51.130;13.978;2023-08-07T09:12:02;3.15;;;1.95;;
19030;SDS011;9648;51.130;13.978;2023-08-07T09:14:30;3.63;;;2.13;;
19030;SDS011;9648;51.130;13.978;2023-08-07T09:17:00;3.50;;;1.48;;
19030;SDS011;9648;51.130;13.978;2023-08-07T09:19:28;3.53;;;1.50;;
19030;SDS011;9648;51.130;13.978;2023-08-07T09:21:56;2.80;;;1.42;;
19030;SDS011;9648;51.130;13.978;2023-08-07T09:24:23;1.88;;;1.25;;
19030;SDS011;9648;51.130;13.978;2023-08-07T09:26:50;2.92;;;1.30;;
19030;SDS011;9648;51.130;13.978;2023-08-07T09:29:18;3.13;;;1.25;;
19030;SDS011;9648;51.130;13.978;2023-08-07T09:31:46;3.58;;;1.30;;
19030;SDS011;9648;51.130;13.978;2023-08-07T09:34:13;2.88;;;1.15;;
19030;SDS011;9648;51.130;13.978;2023-08-07T09:36:43;3.13;;;1.20;;
19030;SDS011;9648;51.130;13.978;2023-08-07T09:39:11;2.25;;;1.20;;
19030;SDS011;9648;51.130;13.978;2023-08-07T09:41:38;1.67;;;1.23;;
19030;SDS011;9648;51.130;13.978;2023-08-07T09:44:06;1.92;;;1.10;;
19030;SDS011;9648;51.130;13.978;2023-08-07T09:46:40;2.58;;;1.20;;
19030;SDS011;9648;51.130;13.978;2023-08-07T09:49:07;2.17;;;1.40;;
19030;SDS011;9648;51.130;13.978;2023-08-07T09:51:40;3.78;;;1.70;;
19030;SDS011;9648;51.130;13.978;2023-08-07T09:54:08;2.17;;;1.48;;
19030;SDS011;9648;51.130;13.978;2023-08-07T09:56:37;6.20;;;1.43;;
19030;SDS011;9648;51.130;13.978;2023-08-07T09:59:04;2.05;;;1.10;;
19030;SDS011;9648;51.130;13.978;2023-08-07T10:01:31;2.65;;;0.95;;
19030;SDS011;9648;51.130;13.978;2023-08-07T10:03:58;1.38;;;1.08;;
19030;SDS011;9648;51.130;13.978;2023-08-07T10:06:26;1.75;;;1.10;;
19030;SDS011;9648;51.130;13.978;2023-08-07T10:08:53;3.20;;;1.10;;
19030;SDS011;9648;51.130;13.978;2023-08-07T10:11:22;1.00;;;0.90;;
19030;SDS011;9648;51.130;13.978;2023-08-07T10:13:50;2.97;;;1.30;;
19030;SDS011;9648;51.130;13.978;2023-08-07T10:16:17;1.15;;;0.90;;
19030;SDS011;9648;51.130;13.978;2023-08-07T10:18:43;2.63;;;1.05;;
19030;SDS011;9648;51.130;13.978;2023-08-07T10:21:10;1.83;;;0.93;;
19030;SDS011;9648;51.130;13.978;2023-08-07T10:23:37;2.17;;;1.15;;
19030;SDS011;9648;51.130;13.978;2023-08-07T10:26:05;1.00;;;0.88;;
19030;SDS011;9648;51.130;13.978;2023-08-07T10:28:37;1.48;;;0.93;;
19030;SDS011;9648;51.130;13.978;2023-08-07T10:31:06;3.58;;;0.90;;
19030;SDS011;9648;51.130;13.978;2023-08-07T10:33:34;1.20;;;0.90;;
19030;SDS011;9648;51.130;13.978;2023-08-07T10:36:01;2.20;;;1.10;;
19030;SDS011;9648;51.130;13.978;2023-08-07T10:38:35;4.10;;;1.45;;
19030;SDS011;9648;51.130;13.978;2023-08-07T10:41:05;3.60;;;1.40;;
19030;SDS011;9648;51.130;13.978;2023-08-07T10:43:37;5.60;;;2.08;;
19030;SDS011;9648;51.130;13.978;2023-08-07T10:46:05;2.83;;;1.50;;
19030;SDS011;9648;51.130;13.978;2023-08-07T10:48:38;2.65;;;1.42;;
19030;SDS011;9648;51.130;13.978;2023-08-07T10:51:05;3.17;;;1.40;;
19030;SDS011;9648;51.130;13.978;2023-08-07T10:53:34;3.72;;;1.20;;
19030;SDS011;9648;51.130;13.978;2023-08-07T10:56:01;1.67;;;1.08;;
19030;SDS011;9648;51.130;13.978;2023-08-07T10:58:29;1.80;;;1.20;;
19030;SDS011;9648;51.130;13.978;2023-08-07T11:01:21;3.40;;;1.30;;
19030;SDS011;9648;51.130;13.978;2023-08-07T11:03:55;1.80;;;1.20;;
19030;SDS011;9648;51.130;13.978;2023-08-07T11:06:23;1.80;;;1.05;;
19030;SDS011;9648;51.130;13.978;2023-08-07T11:08:51;1.27;;;1.08;;
19030;SDS011;9648;51.130;13.978;2023-08-07T11:11:18;1.45;;;1.00;;
19030;SDS011;9648;51.130;13.978;2023-08-07T11:13:45;1.40;;;1.20;;
19030;SDS011;9648;51.130;13.978;2023-08-07T11:16:12;2.65;;;1.05;;
19030;SDS011;9648;51.130;13.978;2023-08-07T11:18:41;2.88;;;1.20;;
19030;SDS011;9648;51.130;13.978;2023-08-07T11:21:08;1.95;;;1.30;;
19030;SDS011;9648;51.130;13.978;2023-08-07T11:23:36;3.20;;;1.63;;
19030;SDS011;9648;51.130;13.978;2023-08-07T11:26:03;2.08;;;1.25;;
19030;SDS011;9648;51.130;13.978;2023-08-07T11:28:30;2.50;;;1.50;;
19030;SDS011;9648;51.130;13.978;2023-08-07T11:30:57;1.75;;;1.20;;
19030;SDS011;9648;51.130;13.978;2023-08-07T11:33:25;1.40;;;1.07;;
19030;SDS011;9648;51.130;13.978;2023-08-07T11:35:54;2.00;;;1.08;;
19030;SDS011;9648;51.130;13.978;2023-08-07T11:38:30;2.22;;;1.10;;
19030;SDS011;9648;51.130;13.978;2023-08-07T11:40:59;2.20;;;1.15;;
19030;SDS011;9648;51.130;13.978;2023-08-07T11:43:26;1.95;;;1.00;;
19030;SDS011;9648;51.130;13.978;2023-08-07T11:45:55;3.00;;;1.25;;
19030;SDS011;9648;51.130;13.978;2023-08-07T11:48:23;1.98;;;1.20;;
19030;SDS011;9648;51.130;13.978;2023-08-07T11:50:51;1.70;;;0.93;;
19030;SDS011;9648;51.130;13.978;2023-08-07T11:53:20;2.50;;;1.10;;
19030;SDS011;9648;51.130;13.978;2023-08-07T11:55:47;2.30;;;0.90;;
19030;SDS011;9648;51.130;13.978;2023-08-07T11:58:18;1.58;;;1.00;;
19030;SDS011;9648;51.130;13.978;2023-08-07T12:00:45;1.38;;;0.90;;
19030;SDS011;9648;51.130;13.978;2023-08-07T12:03:26;2.53;;;0.98;;
19030;SDS011;9648;51.130;13.978;2023-08-07T12:05:56;1.45;;;0.85;;
19030;SDS011;9648;51.130;13.978;2023-08-07T12:08:24;1.38;;;0.80;;
19030;SDS011;9648;51.130;13.978;2023-08-07T12:10:57;2.88;;;0.90;;
19030;SDS011;9648;51.130;13.978;2023-08-07T12:13:24;1.50;;;0.90;;
19030;SDS011;9648;51.130;13.978;2023-08-07T12:15:53;2.58;;;1.00;;
19030;SDS011;9648;51.130;13.978;2023-08-07T12:18:20;2.53;;;1.08;;
19030;SDS011;9648;51.130;13.978;2023-08-07T12:20:48;1.30;;;0.90;;
19030;SDS011;9648;51.130;13.978;2023-08-07T12:23:18;1.70;;;1.00;;
19030;SDS011;9648;51.130;13.978;2023-08-07T12:25:47;1.50;;;0.80;;
19030;SDS011;9648;51.130;13.978;2023-08-07T12:28:14;2.20;;;0.93;;
19030;SDS011;9648;51.130;13.978;2023-08-07T12:30:42;3.00;;;1.10;;
19030;SDS011;9648;51.130;13.978;2023-08-07T12:33:11;5.60;;;1.20;;
19030;SDS011;9648;51.130;13.978;2023-08-07T12:35:38;1.30;;;0.77;;
19030;SDS011;9648;51.130;13.978;2023-08-07T12:38:06;1.45;;;0.90;;
19030;SDS011;9648;51.130;13.978;2023-08-07T12:40:34;1.45;;;0.80;;
19030;SDS011;9648;51.130;13.978;2023-08-07T12:43:02;1.00;;;0.80;;
19030;SDS011;9648;51.130;13.978;2023-08-07T12:45:40;0.77;;;0.70;;
19030;SDS011;9648;51.130;13.978;2023-08-07T12:48:06;1.55;;;0.60;;
19030;SDS011;9648;51.130;13.978;2023-08-07T12:50:34;2.30;;;0.90;;
19030;SDS011;9648;51.130;13.978;2023-08-07T12:53:02;1.98;;;0.80;;
19030;SDS011;9648;51.130;13.978;2023-08-07T12:55:29;1.00;;;0.75;;
19030;SDS011;9648;51.130;13.978;2023-08-07T12:57:56;1.20;;;0.75;;
19030;SDS011;9648;51.130;13.978;2023-08-07T13:00:23;1.05;;;0.75;;
19030;SDS011;9648;51.130;13.978;2023-08-07T13:02:52;0.80;;;0.60;;
19030;SDS011;9648;51.130;13.978;2023-08-07T13:05:20;2.00;;;0.80;;
19030;SDS011;9648;51.130;13.978;2023-08-07T13:07:48;2.20;;;0.80;;
19030;SDS011;9648;51.130;13.978;2023-08-07T13:10:15;1.13;;;0.70;;
19030;SDS011;9648;51.130;13.978;2023-08-07T13:12:43;1.80;;;0.60;;
19030;SDS011;9648;51.130;13.978;2023-08-07T13:15:11;2.97;;;0.55;;
19030;SDS011;9648;51.130;13.978;2023-08-07T13:17:40;0.80;;;0.60;;
19030;SDS011;9648;51.130;13.978;2023-08-07T13:20:09;1.70;;;0.60;;
19030;SDS011;9648;51.130;13.978;2023-08-07T13:22:38;1.20;;;0.70;;
19030;SDS011;9648;51.130;13.978;2023-08-07T13:25:08;1.10;;;0.60;;
19030;SDS011;9648;51.130;13.978;2023-08-07T13:27:36;1.77;;;0.80;;
19030;SDS011;9648;51.130;13.978;2023-08-07T13:30:04;1.08;;;0.65;;
19030;SDS011;9648;51.130;13.978;2023-08-07T13:32:32;1.27;;;0.60;;
19030;SDS011;9648;51.130;13.978;2023-08-07T13:34:59;1.40;;;0.60;;
19030;SDS011;9648;51.130;13.978;2023-08-07T13:37:28;0.83;;;0.70;;
19030;SDS011;9648;51.130;13.978;2023-08-07T13:39:55;2.10;;;0.70;;
19030;SDS011;9648;51.130;13.978;2023-08-07T13:42:23;0.68;;;0.60;;
19030;SDS011;9648;51.130;13.978;2023-08-07T13:44:51;0.95;;;0.60;;
19030;SDS011;9648;51.130;13.978;2023-08-07T13:47:19;0.93;;;0.50;;
19030;SDS011;9648;51.130;13.978;2023-08-07T13:49:46;3.20;;;0.60;;
19030;SDS011;9648;51.130;13.978;2023-08-07T13:52:13;1.80;;;0.60;;
19030;SDS011;9648;51.130;13.978;2023-08-07T13:54:41;1.40;;;0.70;;
19030;SDS011;9648;51.130;13.978;2023-08-07T13:57:08;2.08;;;1.00;;
19030;SDS011;9648;51.130;13.978;2023-08-07T13:59:35;2.20;;;0.80;;
19030;SDS011;9648;51.130;13.978;2023-08-07T14:02:02;1.60;;;1.00;;
19030;SDS011;9648;51.130;13.978;2023-08-07T14:04:29;1.70;;;1.02;;
19030;SDS011;9648;51.130;13.978;2023-08-07T14:06:57;0.95;;;0.50;;
19030;SDS011;9648;51.130;13.978;2023-08-07T14:09:24;2.63;;;0.80;;
19030;SDS011;9648;51.130;13.978;2023-08-07T14:11:53;1.17;;;0.70;;
19030;SDS011;9648;51.130;13.978;2023-08-07T14:14:20;2.03;;;0.93;;
19030;SDS011;9648;51.130;13.978;2023-08-07T14:16:47;2.25;;;1.27;;
19030;SDS011;9648;51.130;13.978;2023-08-07T14:19:14;2.35;;;0.90;;
19030;SDS011;9648;51.130;13.978;2023-08-07T14:21:41;1.95;;;1.02;;
19030;SDS011;9648;51.130;13.978;2023-08-07T14:24:08;2.28;;;1.10;;
19030;SDS011;9648;51.130;13.978;2023-08-07T14:26:35;1.80;;;0.80;;
19030;SDS011;9648;51.130;13.978;2023-08-07T14:29:03;2.92;;;0.90;;
19030;SDS011;9648;51.130;13.978;2023-08-07T14:31:30;1.48;;;0.73;;
19030;SDS011;9648;51.130;13.978;2023-08-07T14:33:57;2.30;;;0.90;;
19030;SDS011;9648;51.130;13.978;2023-08-07T14:36:24;0.88;;;0.88;;
19030;SDS011;9648;51.130;13.978;2023-08-07T14:38:50;1.50;;;0.70;;
19030;SDS011;9648;51.130;13.978;2023-08-07T14:41:18;0.77;;;0.60;;
19030;SDS011;9648;51.130;13.978;2023-08-07T14:43:45;1.05;;;0.70;;
19030;SDS011;9648;51.130;13.978;2023-08-07T14:46:14;1.67;;;0.70;;
19030;SDS011;9648;51.130;13.978;2023-08-07T14:48:42;1.80;;;0.70;;